Costa Magica — IBQQ — position and weather

sailwx.info

Track history (hours):
 
Tides and Currents Weather Stations Pressure Air Temp Water Temp Dewpoint Dewpoint Depression Visibility Wind Speed Wind Dir Waves Ship Positions

Costa Magica

Last reported at 2019-Dec-12 23:24 UTC. Time now 2019-Dec-15 06:05 UTC.
Position N 27°58' W 016°29'.

Type: Ship. MMSI: 247113300.

Date/timePositionNaut miles runAvg speedWind from/ knotsBaromVisibWave heightAir tempDewpointWater temp
2019-Dec-12 23:24N 27°58' W 016°29'33 9.6
2019-Dec-12 20:00N 28°28' W 016°15'0 0.0
2019-Dec-12 15:00N 28°28' W 016°15'1 0.6
2019-Dec-12 13:30N 28°29' W 016°14'1313.1
2019-Dec-12 12:30N 28°33' W 015°60'2516.9
2019-Dec-12 11:00N 28°48' W 015°36'5 9.3
2019-Dec-12 10:30N 28°48' W 015°41'2416.1
2019-Dec-12 09:00N 29°04' W 015°20'2516.2
2019-Dec-12 07:29N 29°21' W 015°00'2517.0
2019-Dec-12 06:01N 29°37' W 014°39'2315.1
2019-Dec-12 04:30N 29°53' W 014°19'14418.6
2019-Dec-11 20:46N 31°29' W 012°15'41118.5
2019-Dec-10 22:33N 35°57' W 006°00'3416.7
2019-Dec-10 20:30N 36°02' W 005°18'3517.8
2019-Dec-10 18:30N 36°22' W 004°42'31 2.2
2019-Dec-10 04:30N 36°31' W 004°06'1514.5
2019-Dec-10 03:30N 36°28' W 003°48'714.0
2019-Dec-10 03:00N 36°26' W 003°40'7815.5
2019-Dec-09 22:01N 36°30' W 002°03'1615.9
2019-Dec-09 21:00N 36°38' W 001°46'916.3
2019-Dec-09 20:28N 36°44' W 001°38'1216.1
2019-Dec-09 19:42N 36°52' W 001°27'2615.5
2019-Dec-09 18:00N 37°11' W 001°04'24418.0
2019-Dec-09 04:26N 40°24' E 002°07'1718.7
2019-Dec-09 03:30N 40°38' E 002°21'239 8.7
2019-Dec-08 00:00N 43°00' E 006°40'715.2
2019-Dec-07 23:30N 43°04' E 006°48'2914.5
2019-Dec-07 21:30N 43°20' E 007°22'1515.4
2019-Dec-07 20:31N 43°30' E 007°38'6112.2
2019-Dec-07 15:29N 44°19' E 008°29'0 0.0
2019-Dec-07 14:29N 44°19' E 008°29'0 0.0
2019-Dec-07 13:59N 44°19' E 008°29'0 0.0
2019-Dec-07 10:29N 44°19' E 008°29'0 0.0
2019-Dec-07 09:29N 44°19' E 008°29'0 0.0
2019-Dec-07 08:29N 44°19' E 008°29'1 0.8
2019-Dec-07 07:00N 44°19' E 008°31'612.7
2019-Dec-07 06:31N 44°13' E 008°33'3014.9
2019-Dec-07 04:30N 43°48' E 008°10'2013.1
2019-Dec-07 03:01N 43°33' E 007°52'2814.0
2019-Dec-07 01:00N 43°19' E 007°19'1413.9
2019-Dec-07 00:00N 43°11' E 007°03'713.2
2019-Dec-06 23:30N 43°08' E 006°55'210 7.5
2019-Dec-05 19:30N 41°29' E 002°45'1312.7
2019-Dec-05 18:30N 41°23' E 002°31'1211.9
2019-Dec-05 17:30N 41°17' E 002°17'7 6.6
2019-Dec-05 16:29N 41°21' E 002°10'0 0.0
2019-Dec-05 15:29N 41°21' E 002°10'0 0.0
2019-Dec-05 13:29N 41°21' E 002°10'0 0.0
2019-Dec-05 12:59N 41°21' E 002°10'0 0.0
2019-Dec-05 08:59N 41°21' E 002°10'11 3.7
2019-Dec-05 06:00N 41°12' E 002°19'917.4
2019-Dec-05 05:31N 41°08' E 002°29'816.4
2019-Dec-05 05:00N 41°04' E 002°39'49515.7
2019-Dec-03 21:30N 38°20' E 012°46'816.1
2019-Dec-03 21:00N 38°19' E 012°56'815.9
2019-Dec-03 20:31N 38°18' E 013°06'816.1
2019-Dec-03 20:00N 38°17' E 013°17'10 3.5
2019-Dec-03 16:59N 38°08' E 013°22'0 0.0
2019-Dec-03 14:59N 38°08' E 013°22'0 0.0
2019-Dec-03 13:29N 38°08' E 013°22'0 0.0
2019-Dec-03 11:29N 38°08' E 013°22'3 1.4
2019-Dec-03 09:30N 38°09' E 013°25'5 9.6
2019-Dec-03 09:01N 38°14' E 013°28'612.1
2019-Dec-03 08:31N 38°20' E 013°29'1312.7
2019-Dec-03 07:31N 38°32' E 013°33'7 7.3
2019-Dec-03 06:30N 38°39' E 013°34'1212.3
2019-Dec-03 05:30N 38°51' E 013°38'1212.4
2019-Dec-03 04:31N 39°03' E 013°41'612.1
2019-Dec-03 04:01N 39°09' E 013°43'611.1
2019-Dec-03 03:30N 39°15' E 013°44'3612.0
2019-Dec-03 00:29N 39°50' E 013°53'  
Track history (hours):
 
Tides and Currents Weather Stations Pressure Air Temp Water Temp Dewpoint Dewpoint Depression Visibility Wind Speed Wind Dir Waves Ship Positions

Costa Magica

Last reported at 2019-Dec-12 23:24 UTC. Time now 2019-Dec-15 06:05 UTC.
Position N 27°58' W 016°29'.

Type: Ship. MMSI: 247113300.

Date/timePositionNaut miles runAvg speedWind from/ knotsBaromVisibWave heightAir tempDewpointWater temp
2019-Dec-12 23:24N 27°58' W 016°29'33 9.6
2019-Dec-12 20:00N 28°28' W 016°15'0 0.0
2019-Dec-12 15:00N 28°28' W 016°15'1 0.6
2019-Dec-12 13:30N 28°29' W 016°14'1313.1
2019-Dec-12 12:30N 28°33' W 015°60'2516.9
2019-Dec-12 11:00N 28°48' W 015°36'5 9.3
2019-Dec-12 10:30N 28°48' W 015°41'2416.1
2019-Dec-12 09:00N 29°04' W 015°20'2516.2
2019-Dec-12 07:29N 29°21' W 015°00'2517.0
2019-Dec-12 06:01N 29°37' W 014°39'2315.1
2019-Dec-12 04:30N 29°53' W 014°19'14418.6
2019-Dec-11 20:46N 31°29' W 012°15'41118.5
2019-Dec-10 22:33N 35°57' W 006°00'3416.7
2019-Dec-10 20:30N 36°02' W 005°18'3517.8
2019-Dec-10 18:30N 36°22' W 004°42'31 2.2
2019-Dec-10 04:30N 36°31' W 004°06'1514.5
2019-Dec-10 03:30N 36°28' W 003°48'714.0
2019-Dec-10 03:00N 36°26' W 003°40'7815.5
2019-Dec-09 22:01N 36°30' W 002°03'1615.9
2019-Dec-09 21:00N 36°38' W 001°46'916.3
2019-Dec-09 20:28N 36°44' W 001°38'1216.1
2019-Dec-09 19:42N 36°52' W 001°27'2615.5
2019-Dec-09 18:00N 37°11' W 001°04'24418.0
2019-Dec-09 04:26N 40°24' E 002°07'1718.7
2019-Dec-09 03:30N 40°38' E 002°21'239 8.7
2019-Dec-08 00:00N 43°00' E 006°40'715.2
2019-Dec-07 23:30N 43°04' E 006°48'2914.5
2019-Dec-07 21:30N 43°20' E 007°22'1515.4
2019-Dec-07 20:31N 43°30' E 007°38'6112.2
2019-Dec-07 15:29N 44°19' E 008°29'0 0.0
2019-Dec-07 14:29N 44°19' E 008°29'0 0.0
2019-Dec-07 13:59N 44°19' E 008°29'0 0.0
2019-Dec-07 10:29N 44°19' E 008°29'0 0.0
2019-Dec-07 09:29N 44°19' E 008°29'0 0.0
2019-Dec-07 08:29N 44°19' E 008°29'1 0.8
2019-Dec-07 07:00N 44°19' E 008°31'612.7
2019-Dec-07 06:31N 44°13' E 008°33'3014.9
2019-Dec-07 04:30N 43°48' E 008°10'2013.1
2019-Dec-07 03:01N 43°33' E 007°52'2814.0
2019-Dec-07 01:00N 43°19' E 007°19'1413.9
2019-Dec-07 00:00N 43°11' E 007°03'713.2
2019-Dec-06 23:30N 43°08' E 006°55'210 7.5
2019-Dec-05 19:30N 41°29' E 002°45'1312.7
2019-Dec-05 18:30N 41°23' E 002°31'1211.9
2019-Dec-05 17:30N 41°17' E 002°17'7 6.6
2019-Dec-05 16:29N 41°21' E 002°10'0 0.0
2019-Dec-05 15:29N 41°21' E 002°10'0 0.0
2019-Dec-05 13:29N 41°21' E 002°10'0 0.0
2019-Dec-05 12:59N 41°21' E 002°10'0 0.0
2019-Dec-05 08:59N 41°21' E 002°10'11 3.7
2019-Dec-05 06:00N 41°12' E 002°19'917.4
2019-Dec-05 05:31N 41°08' E 002°29'816.4
2019-Dec-05 05:00N 41°04' E 002°39'49515.7
2019-Dec-03 21:30N 38°20' E 012°46'816.1
2019-Dec-03 21:00N 38°19' E 012°56'815.9
2019-Dec-03 20:31N 38°18' E 013°06'816.1
2019-Dec-03 20:00N 38°17' E 013°17'10 3.5
2019-Dec-03 16:59N 38°08' E 013°22'0 0.0
2019-Dec-03 14:59N 38°08' E 013°22'0 0.0
2019-Dec-03 13:29N 38°08' E 013°22'0 0.0
2019-Dec-03 11:29N 38°08' E 013°22'3 1.4
2019-Dec-03 09:30N 38°09' E 013°25'5 9.6
2019-Dec-03 09:01N 38°14' E 013°28'612.1
2019-Dec-03 08:31N 38°20' E 013°29'1312.7
2019-Dec-03 07:31N 38°32' E 013°33'7 7.3
2019-Dec-03 06:30N 38°39' E 013°34'1212.3
2019-Dec-03 05:30N 38°51' E 013°38'1212.4
2019-Dec-03 04:31N 39°03' E 013°41'612.1
2019-Dec-03 04:01N 39°09' E 013°43'611.1
2019-Dec-03 03:30N 39°15' E 013°44'3612.0
2019-Dec-03 00:29N 39°50' E 013°53'  

Dump ship's entire track history